Portada
METAR-TAF:

METAR-TAF

Aeroports :

Baroda, Índia

latitud: 22-19-46N, longitud: 73-13-10E, altitud: 39 m

Observació

L'informe es va fer fa 6 hores i 21 minuts, a les 16:00 UTC
Vent calma
Temperatura 27°C
Humitat 70%
Pressió 1013 hPa
Visibilitat: 6000 m

METAR: VABO 241600Z 00000KT 6000 NSC 27/21 Q1013 NOSIG

Hora: 03:51 (22:21 UTC)

Pronòstic

L'informe es va fer fa 2 hores i 21 minuts, a les 20:00 UTC
Pronòstic vàlid del 24 a les 21 UTC al 25 a les 06 UTC
Vent kt del Nord
Visibilitat: 6000 m
Evolucionant progressivament
l' 25 a les 01 UTC al 25 a les 03 UTC
Vent 3 kt amb direcció variable
Visibilitat: 4000 m
calitja
Evolucionant progressivament
l' 25 a les 04 UTC al 25 a les 06 UTC
Visibilitat: 6000 m

TAF: VABO 242000Z 2421/2506 00000KT 6000 NSC BECMG 2501/2503 VRB03KT 4000 HZ BECMG 2504/2506 6000

Observacions i pronòstics meteorològics de més de 4000 aeroports (METAR i TAF).

Les estacions disponibles són els punts grocs i vermells al mapa.

Posi el ratolí al punt desitjat per veure el nom de l'estació.

Feu clic per veure les observacions i els pronòstics meteorològics.

Per canviar el mapa: feu clic els botons verds amb una creu de color negre per apropar; al botó verd amb un guió per allunyar la imatge; o en les fletxes verdes per a mapes adjacents.


METAR-TAF: